sensor_id;sensor_type;location;lat;lon;timestamp;P1;durP1;ratioP1;P2;durP2;ratioP2
19004;SDS011;9635;52.078;8.648;2022-11-18T00:04:34;27.10;;;13.38;;
19004;SDS011;9635;52.078;8.648;2022-11-18T00:09:37;21.70;;;13.95;;
19004;SDS011;9635;52.078;8.648;2022-11-18T00:14:41;21.65;;;13.68;;
19004;SDS011;9635;52.078;8.648;2022-11-18T00:19:43;21.92;;;13.38;;
19004;SDS011;9635;52.078;8.648;2022-11-18T00:24:46;23.55;;;14.15;;
19004;SDS011;9635;52.078;8.648;2022-11-18T00:29:51;26.70;;;15.60;;
19004;SDS011;9635;52.078;8.648;2022-11-18T00:34:53;24.05;;;15.55;;
19004;SDS011;9635;52.078;8.648;2022-11-18T00:39:56;27.08;;;16.02;;
19004;SDS011;9635;52.078;8.648;2022-11-18T00:45:01;27.02;;;15.77;;
19004;SDS011;9635;52.078;8.648;2022-11-18T00:50:05;29.48;;;16.35;;
19004;SDS011;9635;52.078;8.648;2022-11-18T00:55:08;33.85;;;17.92;;
19004;SDS011;9635;52.078;8.648;2022-11-18T01:00:13;37.40;;;18.40;;
19004;SDS011;9635;52.078;8.648;2022-11-18T01:05:16;36.25;;;18.52;;
19004;SDS011;9635;52.078;8.648;2022-11-18T01:10:18;37.38;;;18.13;;
19004;SDS011;9635;52.078;8.648;2022-11-18T01:15:22;34.40;;;17.90;;
19004;SDS011;9635;52.078;8.648;2022-11-18T01:20:25;32.00;;;16.45;;
19004;SDS011;9635;52.078;8.648;2022-11-18T01:25:28;36.05;;;17.63;;
19004;SDS011;9635;52.078;8.648;2022-11-18T01:30:33;36.50;;;17.92;;
19004;SDS011;9635;52.078;8.648;2022-11-18T01:35:37;37.45;;;16.88;;
19004;SDS011;9635;52.078;8.648;2022-11-18T01:40:41;32.22;;;16.88;;
19004;SDS011;9635;52.078;8.648;2022-11-18T01:45:46;31.15;;;16.95;;
19004;SDS011;9635;52.078;8.648;2022-11-18T01:50:51;29.90;;;15.90;;
19004;SDS011;9635;52.078;8.648;2022-11-18T01:55:57;27.38;;;14.98;;
19004;SDS011;9635;52.078;8.648;2022-11-18T02:01:06;30.45;;;16.17;;
19004;SDS011;9635;52.078;8.648;2022-11-18T02:06:09;25.42;;;14.95;;
19004;SDS011;9635;52.078;8.648;2022-11-18T02:11:13;26.00;;;14.88;;
19004;SDS011;9635;52.078;8.648;2022-11-18T02:16:35;23.67;;;14.73;;
19004;SDS011;9635;52.078;8.648;2022-11-18T02:21:49;23.27;;;15.38;;
19004;SDS011;9635;52.078;8.648;2022-11-18T02:27:18;23.55;;;14.15;;
19004;SDS011;9635;52.078;8.648;2022-11-18T02:32:45;23.73;;;15.25;;
19004;SDS011;9635;52.078;8.648;2022-11-18T02:37:56;26.08;;;15.65;;
19004;SDS011;9635;52.078;8.648;2022-11-18T02:43:03;28.85;;;16.98;;
19004;SDS011;9635;52.078;8.648;2022-11-18T02:48:10;29.63;;;16.58;;
19004;SDS011;9635;52.078;8.648;2022-11-18T02:53:17;26.05;;;16.35;;
19004;SDS011;9635;52.078;8.648;2022-11-18T02:58:22;25.55;;;15.57;;
19004;SDS011;9635;52.078;8.648;2022-11-18T03:03:29;28.83;;;17.20;;
19004;SDS011;9635;52.078;8.648;2022-11-18T03:08:34;30.10;;;17.52;;
19004;SDS011;9635;52.078;8.648;2022-11-18T03:13:42;26.67;;;15.98;;
19004;SDS011;9635;52.078;8.648;2022-11-18T03:18:56;29.55;;;16.58;;
19004;SDS011;9635;52.078;8.648;2022-11-18T03:24:08;27.05;;;15.48;;
19004;SDS011;9635;52.078;8.648;2022-11-18T03:29:16;33.53;;;17.23;;
19004;SDS011;9635;52.078;8.648;2022-11-18T03:34:25;27.70;;;15.32;;
19004;SDS011;9635;52.078;8.648;2022-11-18T03:39:31;25.48;;;15.93;;
19004;SDS011;9635;52.078;8.648;2022-11-18T03:44:39;25.90;;;15.35;;
19004;SDS011;9635;52.078;8.648;2022-11-18T03:49:54;31.02;;;16.77;;
19004;SDS011;9635;52.078;8.648;2022-11-18T03:55:04;29.52;;;16.35;;
19004;SDS011;9635;52.078;8.648;2022-11-18T04:00:12;29.25;;;15.93;;
19004;SDS011;9635;52.078;8.648;2022-11-18T04:05:18;29.60;;;16.88;;
19004;SDS011;9635;52.078;8.648;2022-11-18T04:10:23;29.67;;;15.55;;
19004;SDS011;9635;52.078;8.648;2022-11-18T04:15:31;31.75;;;16.85;;
19004;SDS011;9635;52.078;8.648;2022-11-18T04:20:35;28.48;;;15.80;;
19004;SDS011;9635;52.078;8.648;2022-11-18T04:25:38;31.65;;;17.60;;
19004;SDS011;9635;52.078;8.648;2022-11-18T04:30:42;32.30;;;17.52;;
19004;SDS011;9635;52.078;8.648;2022-11-18T04:35:46;36.67;;;18.17;;
19004;SDS011;9635;52.078;8.648;2022-11-18T04:40:49;30.83;;;17.20;;
19004;SDS011;9635;52.078;8.648;2022-11-18T04:45:52;33.78;;;17.73;;
19004;SDS011;9635;52.078;8.648;2022-11-18T04:50:56;32.33;;;17.80;;
19004;SDS011;9635;52.078;8.648;2022-11-18T04:56:03;28.17;;;15.77;;
19004;SDS011;9635;52.078;8.648;2022-11-18T05:01:06;30.88;;;17.13;;
19004;SDS011;9635;52.078;8.648;2022-11-18T05:06:11;29.77;;;17.80;;
19004;SDS011;9635;52.078;8.648;2022-11-18T05:11:14;31.23;;;17.13;;
19004;SDS011;9635;52.078;8.648;2022-11-18T05:16:34;51.83;;;18.38;;
19004;SDS011;9635;52.078;8.648;2022-11-18T05:21:38;28.50;;;17.05;;
19004;SDS011;9635;52.078;8.648;2022-11-18T05:26:41;31.55;;;17.40;;
19004;SDS011;9635;52.078;8.648;2022-11-18T05:31:44;34.92;;;18.98;;
19004;SDS011;9635;52.078;8.648;2022-11-18T05:36:49;35.65;;;19.52;;
19004;SDS011;9635;52.078;8.648;2022-11-18T05:41:52;29.35;;;17.48;;
19004;SDS011;9635;52.078;8.648;2022-11-18T05:47:12;29.05;;;17.42;;
19004;SDS011;9635;52.078;8.648;2022-11-18T05:52:16;29.70;;;16.30;;
19004;SDS011;9635;52.078;8.648;2022-11-18T05:57:19;25.38;;;16.02;;
19004;SDS011;9635;52.078;8.648;2022-11-18T06:02:22;25.42;;;15.05;;
19004;SDS011;9635;52.078;8.648;2022-11-18T06:07:28;24.90;;;15.43;;
19004;SDS011;9635;52.078;8.648;2022-11-18T06:12:38;26.90;;;16.13;;
19004;SDS011;9635;52.078;8.648;2022-11-18T06:17:46;27.67;;;16.70;;
19004;SDS011;9635;52.078;8.648;2022-11-18T06:22:55;30.15;;;15.55;;
19004;SDS011;9635;52.078;8.648;2022-11-18T06:28:01;33.25;;;17.48;;
19004;SDS011;9635;52.078;8.648;2022-11-18T06:33:04;29.38;;;16.10;;
19004;SDS011;9635;52.078;8.648;2022-11-18T06:38:08;28.02;;;16.83;;
19004;SDS011;9635;52.078;8.648;2022-11-18T06:43:11;31.73;;;17.98;;
19004;SDS011;9635;52.078;8.648;2022-11-18T06:48:32;33.92;;;17.50;;
19004;SDS011;9635;52.078;8.648;2022-11-18T06:53:36;32.13;;;16.90;;
19004;SDS011;9635;52.078;8.648;2022-11-18T06:58:39;31.17;;;15.73;;
19004;SDS011;9635;52.078;8.648;2022-11-18T07:03:43;32.30;;;16.58;;
19004;SDS011;9635;52.078;8.648;2022-11-18T07:08:48;27.63;;;16.02;;
19004;SDS011;9635;52.078;8.648;2022-11-18T07:13:52;28.63;;;10.82;;
19004;SDS011;9635;52.078;8.648;2022-11-18T07:18:55;22.52;;;11.35;;
19004;SDS011;9635;52.078;8.648;2022-11-18T07:23:59;15.70;;;10.10;;
19004;SDS011;9635;52.078;8.648;2022-11-18T07:29:02;16.17;;;9.75;;
19004;SDS011;9635;52.078;8.648;2022-11-18T07:34:04;14.35;;;8.55;;
19004;SDS011;9635;52.078;8.648;2022-11-18T07:39:09;22.50;;;12.20;;
19004;SDS011;9635;52.078;8.648;2022-11-18T07:44:12;21.98;;;12.57;;
19004;SDS011;9635;52.078;8.648;2022-11-18T07:49:15;18.63;;;11.45;;
19004;SDS011;9635;52.078;8.648;2022-11-18T07:54:20;21.38;;;11.93;;
19004;SDS011;9635;52.078;8.648;2022-11-18T07:59:22;22.77;;;11.68;;
19004;SDS011;9635;52.078;8.648;2022-11-18T08:04:25;20.38;;;12.02;;
19004;SDS011;9635;52.078;8.648;2022-11-18T08:09:29;19.27;;;12.55;;
19004;SDS011;9635;52.078;8.648;2022-11-18T08:14:32;25.05;;;14.00;;
19004;SDS011;9635;52.078;8.648;2022-11-18T08:19:35;25.10;;;13.13;;
19004;SDS011;9635;52.078;8.648;2022-11-18T08:24:39;23.90;;;12.15;;
19004;SDS011;9635;52.078;8.648;2022-11-18T08:29:42;20.20;;;12.60;;
19004;SDS011;9635;52.078;8.648;2022-11-18T08:34:45;19.67;;;11.63;;
19004;SDS011;9635;52.078;8.648;2022-11-18T08:39:49;18.60;;;12.02;;
19004;SDS011;9635;52.078;8.648;2022-11-18T08:44:52;25.58;;;12.45;;
19004;SDS011;9635;52.078;8.648;2022-11-18T08:49:55;21.48;;;12.63;;
19004;SDS011;9635;52.078;8.648;2022-11-18T08:54:59;22.55;;;12.82;;
19004;SDS011;9635;52.078;8.648;2022-11-18T09:00:02;22.25;;;13.80;;
19004;SDS011;9635;52.078;8.648;2022-11-18T09:05:06;28.02;;;15.15;;
19004;SDS011;9635;52.078;8.648;2022-11-18T09:10:11;25.63;;;13.80;;
19004;SDS011;9635;52.078;8.648;2022-11-18T09:15:14;27.38;;;14.30;;
19004;SDS011;9635;52.078;8.648;2022-11-18T09:20:18;28.77;;;15.65;;
19004;SDS011;9635;52.078;8.648;2022-11-18T09:25:22;32.75;;;15.35;;
19004;SDS011;9635;52.078;8.648;2022-11-18T09:30:25;31.15;;;15.85;;
19004;SDS011;9635;52.078;8.648;2022-11-18T09:35:28;31.98;;;17.02;;
19004;SDS011;9635;52.078;8.648;2022-11-18T09:40:32;28.70;;;15.73;;
19004;SDS011;9635;52.078;8.648;2022-11-18T09:45:40;30.38;;;16.17;;
19004;SDS011;9635;52.078;8.648;2022-11-18T09:50:50;30.67;;;15.48;;
19004;SDS011;9635;52.078;8.648;2022-11-18T09:56:09;30.45;;;15.95;;
19004;SDS011;9635;52.078;8.648;2022-11-18T10:01:16;28.77;;;15.65;;
19004;SDS011;9635;52.078;8.648;2022-11-18T10:06:23;30.20;;;16.88;;
19004;SDS011;9635;52.078;8.648;2022-11-18T10:11:30;28.48;;;16.42;;
19004;SDS011;9635;52.078;8.648;2022-11-18T10:16:45;30.90;;;16.63;;
19004;SDS011;9635;52.078;8.648;2022-11-18T10:22:09;36.13;;;19.20;;
19004;SDS011;9635;52.078;8.648;2022-11-18T10:27:32;34.00;;;17.17;;
19004;SDS011;9635;52.078;8.648;2022-11-18T10:32:46;33.97;;;19.35;;
19004;SDS011;9635;52.078;8.648;2022-11-18T10:38:02;37.72;;;17.95;;
19004;SDS011;9635;52.078;8.648;2022-11-18T10:43:10;36.15;;;18.88;;
19004;SDS011;9635;52.078;8.648;2022-11-18T10:48:15;41.05;;;18.90;;
19004;SDS011;9635;52.078;8.648;2022-11-18T10:53:28;44.53;;;19.85;;
19004;SDS011;9635;52.078;8.648;2022-11-18T10:58:34;37.20;;;18.42;;
19004;SDS011;9635;52.078;8.648;2022-11-18T11:03:42;35.83;;;19.23;;
19004;SDS011;9635;52.078;8.648;2022-11-18T11:08:59;39.05;;;20.45;;
19004;SDS011;9635;52.078;8.648;2022-11-18T11:14:10;42.17;;;19.35;;
19004;SDS011;9635;52.078;8.648;2022-11-18T11:19:18;35.35;;;19.27;;
19004;SDS011;9635;52.078;8.648;2022-11-18T11:24:25;38.17;;;20.33;;
19004;SDS011;9635;52.078;8.648;2022-11-18T11:29:33;40.70;;;21.00;;
19004;SDS011;9635;52.078;8.648;2022-11-18T11:34:59;38.08;;;19.95;;
19004;SDS011;9635;52.078;8.648;2022-11-18T11:40:15;38.92;;;20.65;;
19004;SDS011;9635;52.078;8.648;2022-11-18T11:45:28;38.00;;;20.05;;
19004;SDS011;9635;52.078;8.648;2022-11-18T11:50:41;37.17;;;18.98;;
19004;SDS011;9635;52.078;8.648;2022-11-18T11:56:19;40.17;;;20.23;;
19004;SDS011;9635;52.078;8.648;2022-11-18T12:01:33;34.53;;;19.75;;
19004;SDS011;9635;52.078;8.648;2022-11-18T12:06:39;42.30;;;19.77;;
19004;SDS011;9635;52.078;8.648;2022-11-18T12:11:47;37.83;;;18.88;;
19004;SDS011;9635;52.078;8.648;2022-11-18T12:16:56;38.65;;;18.90;;
19004;SDS011;9635;52.078;8.648;2022-11-18T12:22:08;38.10;;;19.88;;
19004;SDS011;9635;52.078;8.648;2022-11-18T12:27:11;39.53;;;19.20;;
19004;SDS011;9635;52.078;8.648;2022-11-18T12:32:27;43.75;;;20.35;;
19004;SDS011;9635;52.078;8.648;2022-11-18T12:37:37;41.17;;;20.50;;
19004;SDS011;9635;52.078;8.648;2022-11-18T12:42:44;39.22;;;19.77;;
19004;SDS011;9635;52.078;8.648;2022-11-18T12:53:41;37.45;;;17.67;;
19004;SDS011;9635;52.078;8.648;2022-11-18T12:58:47;37.20;;;18.48;;
19004;SDS011;9635;52.078;8.648;2022-11-18T13:04:04;36.58;;;17.98;;
19004;SDS011;9635;52.078;8.648;2022-11-18T13:09:11;35.22;;;18.10;;
19004;SDS011;9635;52.078;8.648;2022-11-18T13:14:19;40.28;;;20.00;;
19004;SDS011;9635;52.078;8.648;2022-11-18T13:19:53;33.97;;;17.88;;
19004;SDS011;9635;52.078;8.648;2022-11-18T13:24:57;39.35;;;18.05;;
19004;SDS011;9635;52.078;8.648;2022-11-18T13:30:01;32.47;;;17.42;;
19004;SDS011;9635;52.078;8.648;2022-11-18T13:35:11;35.17;;;18.17;;
19004;SDS011;9635;52.078;8.648;2022-11-18T13:40:17;35.28;;;17.23;;
19004;SDS011;9635;52.078;8.648;2022-11-18T13:45:24;32.33;;;17.38;;
19004;SDS011;9635;52.078;8.648;2022-11-18T13:50:32;34.80;;;18.33;;
19004;SDS011;9635;52.078;8.648;2022-11-18T13:55:39;34.67;;;18.27;;
19004;SDS011;9635;52.078;8.648;2022-11-18T14:05:56;32.58;;;17.13;;
19004;SDS011;9635;52.078;8.648;2022-11-18T14:11:00;35.28;;;18.77;;
19004;SDS011;9635;52.078;8.648;2022-11-18T14:21:33;34.67;;;18.08;;
19004;SDS011;9635;52.078;8.648;2022-11-18T14:26:38;31.20;;;17.10;;
19004;SDS011;9635;52.078;8.648;2022-11-18T14:31:41;35.45;;;17.92;;
19004;SDS011;9635;52.078;8.648;2022-11-18T14:36:45;41.55;;;20.05;;
19004;SDS011;9635;52.078;8.648;2022-11-18T14:41:49;46.42;;;22.27;;
19004;SDS011;9635;52.078;8.648;2022-11-18T14:46:53;34.83;;;17.55;;
19004;SDS011;9635;52.078;8.648;2022-11-18T14:52:00;33.92;;;18.48;;
19004;SDS011;9635;52.078;8.648;2022-11-18T14:57:04;28.02;;;16.15;;
19004;SDS011;9635;52.078;8.648;2022-11-18T15:02:10;33.10;;;18.35;;
19004;SDS011;9635;52.078;8.648;2022-11-18T15:07:16;23.33;;;14.23;;
19004;SDS011;9635;52.078;8.648;2022-11-18T15:12:25;27.00;;;13.77;;
19004;SDS011;9635;52.078;8.648;2022-11-18T15:17:28;45.53;;;21.90;;
19004;SDS011;9635;52.078;8.648;2022-11-18T15:22:32;23.90;;;14.43;;
19004;SDS011;9635;52.078;8.648;2022-11-18T15:27:35;18.90;;;11.63;;
19004;SDS011;9635;52.078;8.648;2022-11-18T15:32:39;17.40;;;10.80;;
19004;SDS011;9635;52.078;8.648;2022-11-18T15:37:43;14.63;;;8.63;;
19004;SDS011;9635;52.078;8.648;2022-11-18T15:42:46;12.82;;;7.97;;
19004;SDS011;9635;52.078;8.648;2022-11-18T15:47:52;12.43;;;7.75;;
19004;SDS011;9635;52.078;8.648;2022-11-18T15:52:57;14.35;;;8.10;;
19004;SDS011;9635;52.078;8.648;2022-11-18T15:57:59;15.73;;;8.68;;
19004;SDS011;9635;52.078;8.648;2022-11-18T16:03:02;13.55;;;8.80;;
19004;SDS011;9635;52.078;8.648;2022-11-18T16:08:06;19.88;;;10.40;;
19004;SDS011;9635;52.078;8.648;2022-11-18T16:13:09;20.40;;;11.27;;
19004;SDS011;9635;52.078;8.648;2022-11-18T16:18:12;24.35;;;13.18;;
19004;SDS011;9635;52.078;8.648;2022-11-18T16:23:17;23.15;;;13.05;;
19004;SDS011;9635;52.078;8.648;2022-11-18T16:28:20;23.65;;;13.05;;
19004;SDS011;9635;52.078;8.648;2022-11-18T16:33:23;19.83;;;12.05;;
19004;SDS011;9635;52.078;8.648;2022-11-18T16:38:27;29.38;;;15.02;;
19004;SDS011;9635;52.078;8.648;2022-11-18T16:43:30;23.67;;;13.18;;
19004;SDS011;9635;52.078;8.648;2022-11-18T16:48:32;28.38;;;14.75;;
19004;SDS011;9635;52.078;8.648;2022-11-18T16:53:36;34.13;;;16.92;;
19004;SDS011;9635;52.078;8.648;2022-11-18T16:58:39;26.30;;;14.18;;
19004;SDS011;9635;52.078;8.648;2022-11-18T17:03:42;27.35;;;15.23;;
19004;SDS011;9635;52.078;8.648;2022-11-18T17:08:46;29.70;;;16.23;;
19004;SDS011;9635;52.078;8.648;2022-11-18T17:13:49;29.75;;;15.75;;
19004;SDS011;9635;52.078;8.648;2022-11-18T17:18:58;33.42;;;16.48;;
19004;SDS011;9635;52.078;8.648;2022-11-18T17:24:08;31.10;;;15.80;;
19004;SDS011;9635;52.078;8.648;2022-11-18T17:29:18;40.88;;;19.27;;
19004;SDS011;9635;52.078;8.648;2022-11-18T17:34:22;33.40;;;19.13;;
19004;SDS011;9635;52.078;8.648;2022-11-18T17:39:28;38.25;;;19.10;;
19004;SDS011;9635;52.078;8.648;2022-11-18T17:44:32;39.78;;;19.40;;
19004;SDS011;9635;52.078;8.648;2022-11-18T17:49:35;39.45;;;21.52;;
19004;SDS011;9635;52.078;8.648;2022-11-18T17:54:39;38.17;;;19.80;;
19004;SDS011;9635;52.078;8.648;2022-11-18T17:59:41;35.72;;;18.77;;
19004;SDS011;9635;52.078;8.648;2022-11-18T18:04:44;45.15;;;20.55;;
19004;SDS011;9635;52.078;8.648;2022-11-18T18:09:48;42.60;;;21.60;;
19004;SDS011;9635;52.078;8.648;2022-11-18T18:14:51;42.90;;;22.33;;
19004;SDS011;9635;52.078;8.648;2022-11-18T18:19:54;43.30;;;20.88;;
19004;SDS011;9635;52.078;8.648;2022-11-18T18:24:58;48.35;;;22.45;;
19004;SDS011;9635;52.078;8.648;2022-11-18T18:30:01;43.40;;;23.88;;
19004;SDS011;9635;52.078;8.648;2022-11-18T18:35:04;45.70;;;22.92;;
19004;SDS011;9635;52.078;8.648;2022-11-18T18:40:09;44.35;;;21.88;;
19004;SDS011;9635;52.078;8.648;2022-11-18T18:45:13;49.53;;;23.17;;
19004;SDS011;9635;52.078;8.648;2022-11-18T18:50:34;51.00;;;23.35;;
19004;SDS011;9635;52.078;8.648;2022-11-18T18:55:38;48.17;;;23.15;;
19004;SDS011;9635;52.078;8.648;2022-11-18T19:00:45;49.30;;;25.02;;
19004;SDS011;9635;52.078;8.648;2022-11-18T19:05:48;50.78;;;25.17;;
19004;SDS011;9635;52.078;8.648;2022-11-18T19:11:12;56.35;;;24.48;;
19004;SDS011;9635;52.078;8.648;2022-11-18T19:16:30;53.75;;;25.70;;
19004;SDS011;9635;52.078;8.648;2022-11-18T19:21:33;53.92;;;26.45;;
19004;SDS011;9635;52.078;8.648;2022-11-18T19:26:38;43.53;;;24.08;;
19004;SDS011;9635;52.078;8.648;2022-11-18T19:31:41;53.40;;;26.63;;
19004;SDS011;9635;52.078;8.648;2022-11-18T19:36:44;49.78;;;24.75;;
19004;SDS011;9635;52.078;8.648;2022-11-18T19:41:48;57.13;;;28.65;;
19004;SDS011;9635;52.078;8.648;2022-11-18T19:46:51;54.42;;;28.42;;
19004;SDS011;9635;52.078;8.648;2022-11-18T19:51:53;52.83;;;26.02;;
19004;SDS011;9635;52.078;8.648;2022-11-18T19:56:57;56.03;;;27.45;;
19004;SDS011;9635;52.078;8.648;2022-11-18T20:02:01;57.65;;;27.80;;
19004;SDS011;9635;52.078;8.648;2022-11-18T20:07:04;60.88;;;29.52;;
19004;SDS011;9635;52.078;8.648;2022-11-18T20:12:08;48.42;;;25.33;;
19004;SDS011;9635;52.078;8.648;2022-11-18T20:17:11;52.88;;;27.48;;
19004;SDS011;9635;52.078;8.648;2022-11-18T20:22:14;50.40;;;25.40;;
19004;SDS011;9635;52.078;8.648;2022-11-18T20:27:18;47.95;;;23.38;;
19004;SDS011;9635;52.078;8.648;2022-11-18T20:32:22;47.67;;;24.90;;
19004;SDS011;9635;52.078;8.648;2022-11-18T20:37:25;47.92;;;26.10;;
19004;SDS011;9635;52.078;8.648;2022-11-18T20:42:30;45.50;;;24.75;;
19004;SDS011;9635;52.078;8.648;2022-11-18T20:47:53;49.83;;;26.48;;
19004;SDS011;9635;52.078;8.648;2022-11-18T20:52:56;50.60;;;25.98;;
19004;SDS011;9635;52.078;8.648;2022-11-18T20:58:00;53.67;;;28.42;;
19004;SDS011;9635;52.078;8.648;2022-11-18T21:03:03;49.70;;;25.27;;
19004;SDS011;9635;52.078;8.648;2022-11-18T21:08:06;44.58;;;24.10;;
19004;SDS011;9635;52.078;8.648;2022-11-18T21:13:11;48.25;;;25.65;;
19004;SDS011;9635;52.078;8.648;2022-11-18T21:18:32;48.77;;;24.60;;
19004;SDS011;9635;52.078;8.648;2022-11-18T21:23:35;43.88;;;23.48;;
19004;SDS011;9635;52.078;8.648;2022-11-18T21:28:40;47.60;;;25.10;;
19004;SDS011;9635;52.078;8.648;2022-11-18T21:33:42;47.55;;;25.42;;
19004;SDS011;9635;52.078;8.648;2022-11-18T21:38:45;50.10;;;25.33;;
19004;SDS011;9635;52.078;8.648;2022-11-18T21:43:50;49.40;;;27.27;;
19004;SDS011;9635;52.078;8.648;2022-11-18T21:49:08;49.78;;;25.08;;
19004;SDS011;9635;52.078;8.648;2022-11-18T21:54:11;49.38;;;25.23;;
19004;SDS011;9635;52.078;8.648;2022-11-18T21:59:17;49.22;;;25.38;;
19004;SDS011;9635;52.078;8.648;2022-11-18T22:04:22;65.10;;;29.88;;
19004;SDS011;9635;52.078;8.648;2022-11-18T22:09:43;51.22;;;29.50;;
19004;SDS011;9635;52.078;8.648;2022-11-18T22:14:47;45.17;;;27.02;;
19004;SDS011;9635;52.078;8.648;2022-11-18T22:19:50;51.25;;;29.70;;
19004;SDS011;9635;52.078;8.648;2022-11-18T22:24:53;49.15;;;28.48;;
19004;SDS011;9635;52.078;8.648;2022-11-18T22:29:57;53.25;;;27.63;;
19004;SDS011;9635;52.078;8.648;2022-11-18T22:35:00;54.08;;;28.27;;
19004;SDS011;9635;52.078;8.648;2022-11-18T22:40:03;51.70;;;27.02;;
19004;SDS011;9635;52.078;8.648;2022-11-18T22:45:09;53.20;;;27.90;;
19004;SDS011;9635;52.078;8.648;2022-11-18T22:50:11;56.30;;;26.42;;
19004;SDS011;9635;52.078;8.648;2022-11-18T22:55:14;54.58;;;27.77;;
19004;SDS011;9635;52.078;8.648;2022-11-18T23:00:18;51.25;;;26.83;;
19004;SDS011;9635;52.078;8.648;2022-11-18T23:05:21;49.33;;;26.17;;
19004;SDS011;9635;52.078;8.648;2022-11-18T23:10:25;52.58;;;26.73;;
19004;SDS011;9635;52.078;8.648;2022-11-18T23:15:29;52.85;;;26.08;;
19004;SDS011;9635;52.078;8.648;2022-11-18T23:20:34;54.65;;;27.30;;
19004;SDS011;9635;52.078;8.648;2022-11-18T23:25:37;57.90;;;30.40;;
19004;SDS011;9635;52.078;8.648;2022-11-18T23:30:41;57.35;;;28.40;;
19004;SDS011;9635;52.078;8.648;2022-11-18T23:35:50;60.17;;;27.10;;
19004;SDS011;9635;52.078;8.648;2022-11-18T23:40:53;58.40;;;27.33;;
19004;SDS011;9635;52.078;8.648;2022-11-18T23:45:58;53.40;;;26.95;;
19004;SDS011;9635;52.078;8.648;2022-11-18T23:51:02;55.72;;;28.92;;
19004;SDS011;9635;52.078;8.648;2022-11-18T23:56:07;50.33;;;26.42;;
